Time;durP1;ratioP1;P1;durP2;ratioP2;P2;SDS_P1;SDS_P2;PMS_P1;PMS_P2;Temp;Humidity;BMP_temperature;BMP_pressure;BME280_temperature;BME280_humidity;BME280_pressure;Samples;Min_cycle;Max_cycle;Signal;HPM_P1;HPM_P2
2024/03/02 00:00:15;;;;;;;63.60;21.50;;;7.70;70.50;;;2.94;100.00;94382.09;4989545;28;20037;-54
2024/03/02 00:02:46;;;;;;;61.78;21.30;;;7.70;70.50;;;2.98;100.00;94385.06;4981284;28;20030;-57
2024/03/02 00:05:15;;;;;;;64.80;20.67;;;7.80;70.70;;;2.97;100.00;94376.34;4991798;28;20049;-54
2024/03/02 00:07:54;;;;;;;53.08;19.45;;;7.70;70.60;;;2.94;100.00;94383.94;4974831;28;20127;-53
2024/03/02 00:10:31;;;;;;;51.67;19.20;;;7.70;70.50;;;2.85;100.00;94383.59;4973670;28;20022;-55
2024/03/02 00:12:58;;;;;;;60.60;19.15;;;7.70;70.40;;;2.81;100.00;94374.59;4992596;28;20396;-57
2024/03/02 00:15:56;;;;;;;59.03;20.05;;;7.70;70.40;;;2.77;100.00;94373.50;4988970;28;20045;-52
2024/03/02 00:18:37;;;;;;;65.03;21.10;;;7.70;70.50;;;2.73;100.00;94380.28;4987114;28;20033;-54
2024/03/02 00:21:05;;;;;;;53.50;20.17;;;7.60;70.50;;;2.64;100.00;94384.38;4985470;28;20022;-51
2024/03/02 00:23:33;;;;;;;50.83;18.85;;;7.60;70.40;;;2.69;100.00;94382.59;4974241;28;20048;-55
2024/03/02 00:25:59;;;;;;;51.13;20.67;;;7.60;70.50;;;2.73;100.00;94380.28;4975201;28;20388;-55
2024/03/02 00:28:36;;;;;;;53.25;20.52;;;7.60;70.60;;;2.70;100.00;94373.69;4974754;28;20503;-53
2024/03/02 00:31:08;;;;;;;55.08;20.48;;;7.50;70.60;;;2.68;100.00;94385.47;4991142;28;20690;-51
2024/03/02 00:33:43;;;;;;;57.90;19.98;;;7.50;70.50;;;2.64;100.00;94392.28;4980984;28;20969;-54
2024/03/02 00:36:13;;;;;;;46.63;18.05;;;7.50;71.30;;;2.61;100.00;94390.94;4991360;28;20088;-52
2024/03/02 00:38:54;;;;;;;44.03;17.65;;;7.50;70.50;;;2.60;100.00;94389.34;4986153;28;20030;-51
2024/03/02 00:41:31;;;;;;;48.28;18.10;;;7.50;70.50;;;2.58;100.00;94388.00;4987771;28;20018;-54
2024/03/02 00:44:05;;;;;;;51.80;18.75;;;7.40;70.50;;;2.48;100.00;94393.91;4989094;28;20030;-55
2024/03/02 00:46:41;;;;;;;51.22;17.67;;;7.40;70.40;;;2.51;100.00;94396.84;4974751;28;20107;-55
2024/03/02 00:49:25;;;;;;;48.03;18.38;;;7.40;70.60;;;2.52;100.00;94398.44;4990114;28;20036;-55
2024/03/02 00:51:54;;;;;;;47.95;17.20;;;7.40;70.60;;;2.50;100.00;94397.88;4990120;28;20030;-54
2024/03/02 00:54:25;;;;;;;52.03;17.80;;;7.40;70.60;;;2.53;100.00;94401.84;4988885;28;20029;-51
2024/03/02 00:56:56;;;;;;;56.88;17.92;;;7.40;70.60;;;2.52;100.00;94403.69;4991920;28;20432;-52
2024/03/02 00:59:23;;;;;;;38.28;16.77;;;7.40;70.70;;;2.51;100.00;94410.00;4957037;28;20057;-54
2024/03/02 01:01:50;;;;;;;40.38;17.95;;;7.40;70.60;;;2.48;100.00;94405.22;4991247;28;20025;-53
2024/03/02 01:04:16;;;;;;;48.33;15.77;;;7.30;70.60;;;2.45;100.00;94408.31;4991470;28;20029;-51
2024/03/02 01:06:45;;;;;;;40.17;14.65;;;7.40;70.60;;;2.43;100.00;94404.34;4989999;28;20101;-52
2024/03/02 01:09:12;;;;;;;35.72;14.10;;;7.30;70.50;;;2.36;100.00;94407.16;4988820;28;20034;-51
2024/03/02 01:11:38;;;;;;;35.47;14.25;;;7.30;70.40;;;2.28;100.00;94400.44;4967306;28;20105;-52
2024/03/02 01:14:04;;;;;;;37.30;13.88;;;7.30;70.30;;;2.21;100.00;94397.22;4988873;28;20044;-54
2024/03/02 01:16:30;;;;;;;43.78;13.82;;;7.30;70.30;;;2.18;100.00;94399.53;4989407;28;20444;-52
2024/03/02 01:18:56;;;;;;;41.42;13.75;;;7.20;70.20;;;2.09;100.00;94401.75;4988608;28;20049;-54
2024/03/02 01:21:22;;;;;;;39.53;16.02;;;7.20;70.30;;;2.12;100.00;94396.03;4989762;28;20392;-57
2024/03/02 01:23:48;;;;;;;46.33;16.10;;;7.10;70.30;;;2.11;100.00;94397.06;4990311;28;20564;-53
2024/03/02 01:26:13;;;;;;;42.35;14.98;;;7.10;70.40;;;2.10;100.00;94403.38;5004979;23;20022;-59
2024/03/02 01:28:39;;;;;;;42.78;15.20;;;7.10;70.40;;;2.07;100.00;94409.09;5026816;28;20056;-58
2024/03/02 01:31:05;;;;;;;44.20;15.15;;;7.00;71.20;;;2.06;100.00;94405.66;5023004;28;20021;-58
2024/03/02 01:33:31;;;;;;;45.70;15.77;;;7.00;70.50;;;2.05;100.00;94404.06;5018620;28;20029;-59
2024/03/02 01:35:56;;;;;;;41.95;15.43;;;7.00;70.50;;;2.01;100.00;94402.97;5020972;28;20021;-58
2024/03/02 01:38:22;;;;;;;39.88;15.23;;;7.00;70.60;;;2.02;100.00;94401.13;4999046;28;20030;-58
2024/03/02 01:40:48;;;;;;;44.38;15.40;;;6.90;70.60;;;2.02;100.00;94404.53;4979371;28;20462;-56
2024/03/02 01:43:14;;;;;;;46.15;16.52;;;6.90;70.70;;;2.02;100.00;94407.16;4997869;28;20300;-58
2024/03/02 01:45:40;;;;;;;47.83;17.02;;;6.90;70.80;;;1.99;100.00;94397.16;5003189;28;20033;-57
2024/03/02 01:48:07;;;;;;;47.78;16.08;;;6.90;70.90;;;1.98;100.00;94403.44;4994296;28;20037;-55
2024/03/02 01:50:35;;;;;;;48.05;16.27;;;6.90;70.90;;;1.93;100.00;94410.44;4987389;28;20029;-58
2024/03/02 01:53:04;;;;;;;40.00;14.77;;;6.90;70.80;;;1.94;100.00;94410.19;4992999;28;20469;-58
2024/03/02 01:55:30;;;;;;;46.83;16.70;;;6.80;70.80;;;1.94;100.00;94412.81;5001865;28;20035;-58
2024/03/02 01:57:56;;;;;;;50.95;16.45;;;6.80;70.80;;;1.92;100.00;94401.78;4998516;28;20037;-57
2024/03/02 02:00:26;;;;;;;56.63;18.05;;;6.80;70.90;;;1.90;100.00;94403.81;4995933;28;20025;-58
2024/03/02 02:02:53;;;;;;;49.97;15.93;;;6.80;71.00;;;1.88;100.00;94403.28;5000450;28;20041;-58
2024/03/02 02:05:19;;;;;;;43.63;15.88;;;6.80;71.00;;;1.87;100.00;94409.56;4998225;28;20476;-59
2024/03/02 02:07:45;;;;;;;42.55;15.90;;;6.80;70.90;;;1.80;100.00;94411.56;4997643;28;20048;-58
2024/03/02 02:10:11;;;;;;;50.92;16.40;;;6.80;70.90;;;1.78;100.00;94405.72;5002542;28;20029;-57
2024/03/02 02:12:38;;;;;;;47.38;16.08;;;6.80;70.90;;;1.83;100.00;94411.06;4995243;28;20116;-56
2024/03/02 02:15:29;;;;;;;41.38;15.48;;;6.70;70.90;;;1.86;100.00;94407.97;5001245;28;20032;-55
2024/03/02 02:17:57;;;;;;;65.00;15.02;;;6.70;71.00;;;1.85;100.00;94415.06;4996841;28;20044;-57
2024/03/02 02:20:24;;;;;;;52.80;15.68;;;6.70;70.90;;;1.79;100.00;94418.63;4998272;28;20594;-56
2024/03/02 02:23:07;;;;;;;51.13;16.30;;;6.70;70.90;;;1.75;100.00;94412.25;4997238;28;20112;-57
2024/03/02 02:25:33;;;;;;;;;;;6.70;70.90;;;1.70;100.00;94406.16;4994554;28;20030;-57
2024/03/02 02:27:59;;;;;;;52.05;16.05;;;6.70;70.70;;;1.67;100.00;94401.38;4996749;28;20297;-58
2024/03/02 02:30:30;;;;;;;51.88;17.33;;;6.60;70.70;;;1.65;100.00;94400.78;5002129;28;20108;-55
2024/03/02 02:32:57;;;;;;;57.47;17.73;;;6.60;70.80;;;1.63;100.00;94403.66;4996609;28;20470;-56
2024/03/02 02:35:27;;;;;;;64.18;19.50;;;6.60;70.80;;;1.58;100.00;94395.69;4996615;28;20021;-57
2024/03/02 02:37:56;;;;;;;61.25;18.38;;;6.60;70.90;;;1.60;100.00;94391.81;5002315;28;20200;-57
2024/03/02 02:40:23;;;;;;;56.67;19.10;;;6.50;70.90;;;1.64;100.00;94392.13;4993968;28;20029;-58
2024/03/02 02:42:49;;;;;;;62.60;19.38;;;6.50;71.00;;;1.62;100.00;94386.31;4997286;28;20523;-58
2024/03/02 02:45:16;;;;;;;80.68;22.25;;;6.50;71.00;;;1.68;100.00;94384.56;4999146;28;20041;-57
2024/03/02 02:47:42;;;;;;;65.63;21.00;;;6.50;71.20;;;1.73;100.00;94377.56;5003190;28;20074;-58
2024/03/02 02:50:10;;;;;;;59.45;19.38;;;6.60;71.30;;;1.75;100.00;94380.75;4999584;28;20151;-57
2024/03/02 02:52:40;;;;;;;68.85;20.05;;;6.50;71.30;;;1.71;100.00;94374.38;4979995;28;20029;-58
2024/03/02 02:55:11;;;;;;;69.90;21.70;;;6.60;71.30;;;1.68;100.00;94374.88;4995028;28;20024;-58
2024/03/02 02:57:41;;;;;;;79.63;21.45;;;6.60;71.30;;;1.66;100.00;94363.81;5001903;28;20032;-59
2024/03/02 03:00:16;;;;;;;67.85;20.83;;;6.60;71.20;;;1.65;100.00;94362.22;4997403;28;20468;-57
2024/03/02 03:02:44;;;;;;;80.40;23.67;;;6.50;71.20;;;1.62;100.00;94362.69;5001115;28;20091;-57
2024/03/02 03:05:13;;;;;;;83.45;23.40;;;6.50;71.20;;;1.65;100.00;94359.59;4991505;28;20021;-57
2024/03/02 03:07:44;;;;;;;80.45;23.77;;;6.50;71.30;;;1.64;100.00;94360.63;5004971;28;20442;-58
2024/03/02 03:10:10;;;;;;;83.38;23.58;;;6.50;71.40;;;1.65;100.00;94366.66;4999519;28;20109;-58
2024/03/02 03:12:37;;;;;;;84.25;25.40;;;6.50;71.40;;;1.68;100.00;94363.56;5003628;28;20958;-57
2024/03/02 03:15:04;;;;;;;78.50;25.27;;;6.60;71.50;;;1.71;100.00;94361.25;4999816;28;20056;-59
2024/03/02 03:17:31;;;;;;;149.80;28.02;;;6.60;71.60;;;1.75;100.00;94372.06;4999992;28;20446;-58
2024/03/02 03:19:56;;;;;;;85.35;22.80;;;6.60;71.70;;;1.74;100.00;94362.63;5005049;28;20079;-58
2024/03/02 03:22:22;;;;;;;102.45;23.60;;;6.60;71.60;;;1.76;100.00;94366.59;5002127;28;20041;-55
2024/03/02 03:24:48;;;;;;;103.15;24.05;;;6.60;71.60;;;1.77;100.00;94365.56;5002142;28;20361;-57
2024/03/02 03:27:14;;;;;;;92.05;23.92;;;6.60;71.60;;;1.79;100.00;94362.72;5000103;28;20046;-56
2024/03/02 03:29:39;;;;;;;69.03;21.85;;;6.60;71.60;;;1.77;100.00;94356.88;4998902;28;20017;-57
2024/03/02 03:32:06;;;;;;;69.78;23.13;;;6.60;71.60;;;1.77;100.00;94360.31;5002912;28;20022;-58
2024/03/02 03:34:36;;;;;;;81.63;22.85;;;6.60;71.60;;;1.78;100.00;94364.50;5000088;28;20375;-58
2024/03/02 03:37:03;;;;;;;71.05;22.25;;;6.60;71.70;;;1.80;100.00;94361.66;4996697;28;20025;-59
2024/03/02 03:39:29;;;;;;;69.47;22.92;;;6.60;71.60;;;1.83;100.00;94359.34;4991579;28;20029;-57
2024/03/02 03:41:55;;;;;;;82.93;24.00;;;6.70;72.60;;;1.89;100.00;94367.31;4999530;28;20036;-57
2024/03/02 03:44:21;;;;;;;75.93;22.80;;;6.70;71.90;;;1.92;100.00;94372.88;4996007;28;20102;-59
2024/03/02 03:46:47;;;;;;;75.20;23.10;;;6.70;72.00;;;1.95;100.00;94369.78;4998043;28;20029;-56
2024/03/02 03:49:13;;;;;;;73.38;21.25;;;6.70;72.00;;;2.00;100.00;94369.03;5002049;28;20034;-59
2024/03/02 03:51:38;;;;;;;62.17;20.63;;;6.80;72.00;;;2.00;100.00;94364.59;4997120;28;20033;-54
2024/03/02 03:54:04;;;;;;;65.22;19.73;;;6.80;72.00;;;2.03;100.00;94369.34;5003281;28;20388;-58
2024/03/02 03:56:30;;;;;;;62.00;20.70;;;6.80;72.00;;;2.02;100.00;94374.88;5000690;28;20044;-58
2024/03/02 03:58:56;;;;;;;52.40;17.65;;;6.80;72.00;;;2.01;100.00;94371.44;4990185;28;20724;-58
2024/03/02 04:01:22;;;;;;;62.13;17.75;;;6.80;72.00;;;2.03;100.00;94368.56;4993955;28;20108;-58
2024/03/02 04:03:48;;;;;;;50.92;17.55;;;6.80;72.00;;;2.02;100.00;94369.59;4991934;28;20589;-58
2024/03/02 04:06:16;;;;;;;53.47;17.05;;;6.80;71.90;;;2.04;100.00;94375.44;5000856;28;20121;-58
2024/03/02 04:08:42;;;;;;;49.65;19.02;;;6.80;71.80;;;2.02;100.00;94375.66;4999309;28;20490;-59
2024/03/02 04:11:08;;;;;;;44.47;16.88;;;6.80;71.70;;;2.02;100.00;94370.41;4996126;28;20169;-57
2024/03/02 04:13:34;;;;;;;41.55;15.00;;;6.80;71.70;;;1.94;100.00;94367.38;5001441;28;20033;-56
2024/03/02 04:16:00;;;;;;;46.78;14.93;;;6.80;71.60;;;1.96;100.00;94375.81;4996049;28;20105;-58
2024/03/02 04:18:25;;;;;;;46.95;13.73;;;6.80;71.60;;;1.89;100.00;94370.72;4998257;28;20459;-58
2024/03/02 04:20:51;;;;;;;39.00;13.98;;;6.80;71.40;;;1.84;100.00;94373.28;5000827;28;20112;-58
2024/03/02 04:23:17;;;;;;;40.53;13.38;;;6.80;71.30;;;1.79;100.00;94368.75;5000490;28;20021;-56
2024/03/02 04:25:43;;;;;;;49.55;15.18;;;6.70;71.30;;;1.75;100.00;94361.56;4998631;28;20025;-58
2024/03/02 04:28:08;;;;;;;49.00;15.60;;;6.70;71.30;;;1.74;100.00;94368.66;4959165;28;1134818;-57
2024/03/02 04:30:34;;;;;;;58.78;16.08;;;6.70;71.50;;;1.73;100.00;94367.06;4997243;28;20732;-55
2024/03/02 04:33:02;;;;;;;49.05;15.57;;;6.60;71.50;;;1.74;100.00;94365.25;4997395;28;20029;-57
2024/03/02 04:35:28;;;;;;;37.53;14.48;;;6.60;71.60;;;1.74;100.00;94365.25;5007248;28;20472;-57
2024/03/02 04:37:54;;;;;;;39.88;14.00;;;6.60;71.70;;;1.75;100.00;94365.00;4991248;28;20091;-58
2024/03/02 04:40:20;;;;;;;36.90;13.48;;;6.60;71.70;;;1.75;100.00;94359.75;5005004;28;20021;-58
2024/03/02 04:42:46;;;;;;;38.92;13.40;;;6.60;71.80;;;1.76;100.00;94363.19;4989921;28;20529;-57
2024/03/02 04:45:11;;;;;;;33.22;11.82;;;6.60;72.70;;;1.74;100.00;94368.66;5002165;28;20361;-59
2024/03/02 04:47:37;;;;;;;38.83;12.35;;;6.60;71.90;;;1.71;100.00;94368.34;4996792;28;20032;-58
2024/03/02 04:50:04;;;;;;;41.03;13.23;;;6.50;71.80;;;1.67;100.00;94369.88;4998845;28;20057;-57
2024/03/02 04:52:30;;;;;;;35.33;11.40;;;6.60;71.80;;;1.63;100.00;94369.53;4996709;28;20033;-58
2024/03/02 04:57:40;;;;;;;43.78;12.18;;;6.50;71.60;;;1.52;100.00;94375.66;4998766;28;20064;-58
2024/03/02 05:00:08;;;;;;;51.72;11.95;;;6.40;71.50;;;1.46;100.00;94380.00;5005256;28;20056;-56
2024/03/02 05:02:35;;;;;;;28.00;10.20;;;6.40;71.60;;;1.42;100.00;94372.88;5001536;28;20500;-56
2024/03/02 05:05:02;;;;;;;26.15;9.57;;;6.40;71.50;;;1.42;100.00;94378.91;5001933;28;20025;-55
2024/03/02 05:07:28;;;;;;;46.65;10.38;;;6.30;71.50;;;1.36;100.00;94378.00;4999738;28;20056;-59
2024/03/02 05:09:54;;;;;;;25.50;9.60;;;6.30;71.40;;;1.32;100.00;94374.28;5002248;28;20124;-58
2024/03/02 05:12:40;;;;;;;33.47;9.52;;;6.20;71.30;;;1.27;100.00;94378.63;5001958;28;20433;-59
2024/03/02 05:15:10;;;;;;;23.85;9.32;;;6.20;71.20;;;1.21;100.00;94382.19;5000588;28;20022;-56
2024/03/02 05:17:37;;;;;;;27.52;9.68;;;6.10;71.30;;;1.17;100.00;94379.25;5003528;28;20029;-58
2024/03/02 05:20:08;;;;;;;23.70;8.40;;;6.10;71.30;;;1.14;100.00;94387.59;4996830;28;20030;-56
2024/03/02 05:22:36;;;;;;;19.48;8.25;;;6.10;71.40;;;1.08;100.00;94393.78;5002692;28;20037;-59
2024/03/02 05:25:06;;;;;;;27.27;8.60;;;6.00;71.30;;;1.02;100.00;94389.47;5002106;28;20025;-58
2024/03/02 05:27:35;;;;;;;22.02;7.90;;;6.00;71.30;;;0.90;100.00;94389.50;5003463;28;20049;-57
2024/03/02 05:30:03;;;;;;;20.65;8.35;;;6.00;71.30;;;0.92;100.00;94395.31;4999456;28;20026;-58
2024/03/02 05:32:29;;;;;;;26.40;7.72;;;5.90;71.30;;;0.91;100.00;94391.09;5008276;28;20053;-55
2024/03/02 05:34:55;;;;;;;24.42;9.52;;;5.90;71.40;;;0.92;100.00;94393.47;5001875;28;20056;-56
2024/03/02 05:37:20;;;;;;;63.55;9.98;;;5.90;71.40;;;0.84;100.00;94388.59;5006837;28;20104;-58
2024/03/02 05:39:46;;;;;;;22.42;8.68;;;5.80;71.40;;;0.80;100.00;94382.22;4998515;28;20049;-57
2024/03/02 05:42:12;;;;;;;24.50;9.88;;;5.80;71.30;;;0.77;100.00;94377.44;5002070;28;20545;-56
2024/03/02 05:44:38;;;;;;;24.85;10.25;;;5.70;71.30;;;0.66;100.00;94376.47;5002429;28;20376;-56
2024/03/02 05:47:04;;;;;;;32.47;10.90;;;5.70;71.30;;;0.67;100.00;94385.13;4999254;28;20029;-57
2024/03/02 05:49:30;;;;;;;184.18;16.65;;;5.70;71.40;;;0.69;100.00;94389.09;5000872;28;20033;-55
2024/03/02 05:51:56;;;;;;;22.65;9.10;;;5.70;71.50;;;0.75;100.00;94381.31;4997694;28;20022;-57
2024/03/02 05:54:22;;;;;;;28.50;9.30;;;5.60;71.50;;;0.76;100.00;94385.56;4995058;28;20033;-58
2024/03/02 05:56:48;;;;;;;32.83;9.75;;;5.60;71.60;;;0.69;100.00;94386.47;5000224;28;20032;-57
2024/03/02 05:59:15;;;;;;;115.50;13.48;;;5.60;71.50;;;0.66;100.00;94389.56;4998620;28;20038;-57
2024/03/02 06:01:43;;;;;;;30.45;10.63;;;5.60;71.50;;;0.59;100.00;94388.09;5003400;28;20224;-58
2024/03/02 06:04:13;;;;;;;38.55;11.30;;;5.50;71.40;;;0.56;100.00;94391.97;4996472;28;20116;-58
2024/03/02 06:06:40;;;;;;;28.25;11.43;;;5.50;71.40;;;0.51;100.00;94391.09;4998719;28;20017;-57
2024/03/02 06:09:08;;;;;;;24.15;10.77;;;5.50;71.50;;;0.56;100.00;94388.53;5002543;28;20025;-58
2024/03/02 06:11:39;;;;;;;31.05;11.60;;;5.50;71.60;;;0.59;100.00;94390.72;4996702;28;20399;-58
2024/03/02 06:14:07;;;;;;;32.65;11.45;;;5.50;71.70;;;0.54;100.00;94386.16;4981135;28;20033;-57
2024/03/02 06:16:34;;;;;;;30.80;11.30;;;5.50;71.70;;;0.53;100.00;94395.03;4998596;28;20033;-58
2024/03/02 06:19:01;;;;;;;33.45;13.15;;;5.50;71.80;;;0.55;100.00;94394.81;4999120;28;20037;-56
2024/03/02 06:21:28;;;;;;;39.38;12.32;;;5.50;71.60;;;0.58;100.00;94396.97;5005007;28;20066;-57
2024/03/02 06:23:54;;;;;;;28.83;12.18;;;5.50;71.70;;;0.61;100.00;94399.16;4996246;28;20029;-58
2024/03/02 06:26:20;;;;;;;32.88;12.60;;;5.50;71.60;;;0.57;100.00;94396.19;5003529;28;20104;-57
2024/03/02 06:28:46;;;;;;;41.35;13.85;;;5.50;71.60;;;0.58;100.00;94396.97;4996393;28;20439;-58
2024/03/02 06:31:12;;;;;;;37.47;13.23;;;5.50;71.60;;;0.58;100.00;94399.59;4995618;28;20483;-58
2024/03/02 06:33:40;;;;;;;38.60;12.52;;;5.60;71.80;;;0.62;100.00;94398.91;4990117;28;20030;-57
2024/03/02 06:36:08;;;;;;;43.60;12.13;;;5.60;71.80;;;0.64;100.00;94398.69;4971031;28;20388;-58
2024/03/02 06:38:34;;;;;;;56.85;12.93;;;5.60;71.70;;;0.64;100.00;94396.84;4990263;28;20105;-54
2024/03/02 06:41:00;;;;;;;75.35;13.23;;;5.60;71.70;;;0.67;100.00;94395.59;4989089;28;20140;-58
2024/03/02 06:43:26;;;;;;;48.28;12.82;;;5.60;71.70;;;0.64;100.00;94399.47;4989716;28;20121;-55
2024/03/02 06:45:52;;;;;;;48.75;13.00;;;5.70;71.70;;;0.67;100.00;94403.47;4990075;28;20039;-56
2024/03/02 06:48:20;;;;;;;31.80;12.18;;;5.70;71.60;;;0.67;100.00;94401.63;4988986;28;20038;-57
2024/03/02 06:50:50;;;;;;;64.97;14.23;;;5.70;71.70;;;0.72;100.00;94397.50;4988664;28;20109;-57
2024/03/02 06:53:17;;;;;;;53.10;12.95;;;5.80;71.70;;;0.73;100.00;94399.13;4988456;28;20117;-57
2024/03/02 06:55:44;;;;;;;36.25;12.35;;;5.80;71.70;;;0.78;100.00;94401.84;4969102;28;20133;-56
2024/03/02 06:58:15;;;;;;;37.83;12.27;;;5.80;71.70;;;0.78;100.00;94393.97;4989640;28;20049;-57
2024/03/02 07:00:43;;;;;;;33.10;11.10;;;5.90;72.50;;;0.84;100.00;94404.31;4990255;28;20025;-57
2024/03/02 07:03:09;;;;;;;38.85;11.95;;;5.90;71.60;;;0.85;100.00;94398.06;4989316;28;20068;-57
2024/03/02 07:05:35;;;;;;;35.65;12.05;;;6.00;71.60;;;0.90;100.00;94400.78;4991442;28;20403;-58
2024/03/02 07:08:02;;;;;;;38.17;12.48;;;6.00;71.60;;;0.96;100.00;94403.50;4993465;28;20480;-55
2024/03/02 07:10:28;;;;;;;37.97;11.35;;;6.10;71.60;;;1.01;100.00;94403.59;4993653;28;20107;-57
2024/03/02 07:12:54;;;;;;;51.00;12.63;;;6.20;71.70;;;1.03;100.00;94399.69;4992351;28;20060;-55
2024/03/02 07:18:04;;;;;;;41.65;12.73;;;6.30;71.50;;;1.14;100.00;94401.50;4992908;28;20249;-57
2024/03/02 07:20:30;;;;;;;41.90;12.75;;;6.30;71.40;;;1.21;100.00;94401.34;4993567;28;20481;-55
2024/03/02 07:22:56;;;;;;;42.35;13.10;;;6.40;71.50;;;1.30;100.00;94396.53;4991708;28;20484;-58
2024/03/02 07:25:22;;;;;;;44.38;12.98;;;6.50;71.60;;;1.39;100.00;94395.91;4991123;28;20032;-57
2024/03/02 07:27:48;;;;;;;43.97;12.75;;;6.50;71.60;;;1.51;100.00;94392.44;4993000;28;20042;-55
2024/03/02 07:30:16;;;;;;;40.20;13.70;;;6.60;71.70;;;1.62;100.00;94397.59;4994418;28;20033;-57
2024/03/02 07:32:45;;;;;;;37.65;12.85;;;6.80;71.80;;;1.78;100.00;94397.84;4998081;28;20057;-57
2024/03/02 07:35:15;;;;;;;36.50;13.07;;;7.00;71.80;;;1.96;100.00;94392.38;4992479;28;20053;-58
2024/03/02 07:37:44;;;;;;;38.67;13.02;;;7.20;71.90;;;2.23;100.00;94391.72;4992464;28;20036;-58
2024/03/02 07:40:11;;;;;;;37.40;13.43;;;7.50;71.90;;;2.57;100.00;94392.47;4993016;28;20021;-53
2024/03/02 07:42:41;;;;;;;30.95;12.18;;;7.80;71.90;;;2.91;100.00;94393.13;4991480;28;20041;-58
2024/03/02 07:45:07;;;;;;;29.48;11.00;;;8.10;71.90;;;3.20;100.00;94383.19;4992879;28;20177;-59
2024/03/02 07:47:35;;;;;;;26.63;10.82;;;8.50;71.90;;;3.52;100.00;94377.19;4991843;28;20033;-57
2024/03/02 07:50:01;;;;;;;23.80;10.95;;;8.80;71.80;;;3.84;100.00;94373.78;4992820;28;20109;-57
2024/03/02 07:52:27;;;;;;;31.02;11.38;;;9.10;72.50;;;4.15;100.00;94375.59;4992344;28;20061;-58
2024/03/02 07:54:53;;;;;;;26.13;10.93;;;9.50;71.80;;;4.54;100.00;94382.41;4991622;28;20061;-57
2024/03/02 07:57:19;;;;;;;23.67;11.18;;;9.90;71.70;;;4.98;100.00;94382.06;4992518;28;20496;-58
2024/03/02 07:59:46;;;;;;;24.70;10.88;;;10.40;71.50;;;5.40;100.00;94378.53;4991667;28;20072;-58
2024/03/02 08:02:13;;;;;;;21.08;10.90;;;10.80;71.50;;;5.66;100.00;94382.78;4991740;28;20034;-58
2024/03/02 08:04:39;;;;;;;25.10;9.88;;;11.30;71.10;;;5.85;100.00;94384.91;4970185;28;20060;-57
2024/03/02 08:07:05;;;;;;;21.85;9.93;;;11.70;70.80;;;6.16;100.00;94386.53;4991129;28;20058;-58
2024/03/02 08:09:31;;;;;;;20.45;9.00;;;12.10;70.40;;;6.48;100.00;94382.78;4992787;28;20426;-57
2024/03/02 08:11:58;;;;;;;15.80;8.55;;;12.60;70.00;;;6.58;100.00;94380.13;4990821;28;20025;-57
2024/03/02 08:14:24;;;;;;;15.32;8.35;;;13.10;69.60;;;6.73;100.00;94379.28;4992519;28;20079;-57
2024/03/02 08:16:50;;;;;;;14.57;8.50;;;13.50;69.00;;;6.82;100.00;94377.66;4989467;28;20025;-58
2024/03/02 08:19:16;;;;;;;12.23;8.07;;;13.80;68.20;;;6.99;100.00;94384.50;4991557;28;20029;-58
2024/03/02 08:21:44;;;;;;;12.52;8.40;;;14.20;67.60;;;7.27;100.00;94378.56;4991745;28;20022;-57
2024/03/02 08:24:10;;;;;;;10.18;7.72;;;14.40;67.20;;;7.38;100.00;94374.78;4991313;28;20030;-58
2024/03/02 08:26:36;;;;;;;9.38;7.20;;;14.50;66.40;;;7.59;100.00;94378.13;4991850;28;20132;-58
2024/03/02 08:29:03;;;;;;;10.00;6.93;;;14.70;66.20;;;7.68;100.00;94369.56;4957410;28;22293;-57
2024/03/02 08:31:30;;;;;;;8.75;7.00;;;15.00;66.00;;;7.96;100.00;94379.47;4988437;28;20022;-59
2024/03/02 08:33:56;;;;;;;8.20;6.85;;;15.20;65.60;;;8.19;100.00;94367.34;4992169;28;20054;-59
2024/03/02 08:36:23;;;;;;;7.40;5.93;;;15.50;65.60;;;8.43;100.00;94367.44;4989321;28;20071;-57
2024/03/02 08:38:51;;;;;;;6.50;5.80;;;15.70;65.40;;;8.61;100.00;94357.16;4991978;28;20083;-59
2024/03/02 08:41:18;;;;;;;6.45;5.85;;;15.90;65.20;;;8.84;100.00;94353.72;4989327;28;20117;-59
2024/03/02 08:43:44;;;;;;;6.63;5.43;;;16.20;64.90;;;9.17;100.00;94356.50;4991519;28;20500;-59
2024/03/02 08:46:10;;;;;;;5.03;4.53;;;16.40;64.70;;;9.39;100.00;94350.66;4991526;28;20037;-58
2024/03/02 08:48:36;;;;;;;3.75;3.35;;;16.70;64.50;;;9.67;96.49;94352.38;4991176;28;20415;-57
2024/03/02 08:51:04;;;;;;;3.50;3.10;;;16.90;63.70;;;9.96;97.58;94348.75;4991738;28;20072;-59
2024/03/02 08:53:30;;;;;;;3.83;2.90;;;17.00;63.00;;;9.95;87.76;94340.00;4990657;28;20064;-59
2024/03/02 08:55:56;;;;;;;3.50;3.10;;;17.20;62.10;;;10.19;92.89;94339.88;4991552;28;20476;-57
2024/03/02 08:58:22;;;;;;;2.80;2.53;;;17.30;61.30;;;10.27;90.66;94341.09;4988794;28;20033;-58
2024/03/02 09:00:48;;;;;;;2.90;2.70;;;17.50;60.20;;;10.45;88.18;94344.78;4990293;28;20423;-59
2024/03/02 09:03:14;;;;;;;3.50;2.40;;;17.60;59.50;;;10.47;87.38;94345.28;4991074;28;20195;-57
2024/03/02 09:05:41;;;;;;;2.63;2.42;;;17.70;58.90;;;10.70;86.10;94337.44;4990981;28;20104;-59
2024/03/02 09:08:06;;;;;;;3.10;2.80;;;17.90;58.50;;;10.91;82.89;94343.16;4991429;28;20026;-59
2024/03/02 09:10:33;;;;;;;6.15;2.75;;;18.10;58.10;;;11.05;81.44;94331.41;4991465;28;20407;-58
2024/03/02 09:12:59;;;;;;;3.00;2.80;;;18.30;57.40;;;11.04;80.38;94331.72;4980916;28;20025;-59
2024/03/02 09:15:25;;;;;;;4.03;2.90;;;18.40;56.40;;;10.98;81.66;94325.69;4991094;28;20419;-58
2024/03/02 09:17:51;;;;;;;3.40;3.10;;;18.40;56.00;;;10.83;82.79;94331.31;4990334;28;20248;-59
2024/03/02 09:20:17;;;;;;;2.90;2.70;;;18.30;55.90;;;10.68;83.04;94336.91;4991062;28;20030;-60
2024/03/02 09:22:42;;;;;;;3.35;2.63;;;18.20;55.80;;;10.42;80.25;94330.19;4990624;28;20025;-59
2024/03/02 09:25:08;;;;;;;3.42;3.13;;;18.20;55.40;;;10.22;79.07;94333.19;4990392;28;20034;-58
2024/03/02 09:27:38;;;;;;;5.68;3.60;;;18.10;54.80;;;10.09;80.51;94325.94;4990710;28;20046;-58
2024/03/02 09:30:09;;;;;;;4.32;3.92;;;18.00;54.30;;;10.15;80.02;94324.75;4989987;28;20399;-57
2024/03/02 09:32:37;;;;;;;5.57;4.00;;;17.80;53.70;;;10.06;80.12;94323.84;4990794;28;20053;-59
2024/03/02 09:35:04;;;;;;;5.40;4.03;;;17.70;53.60;;;9.98;79.53;94319.22;4990233;28;20022;-58
2024/03/02 09:37:30;;;;;;;4.53;4.03;;;17.60;53.50;;;10.16;81.66;94324.50;4990361;28;20025;-57
2024/03/02 09:39:55;;;;;;;4.75;3.85;;;17.50;53.70;;;10.11;82.16;94315.78;4990591;28;20120;-59
2024/03/02 09:42:22;;;;;;;4.68;4.22;;;17.60;53.80;;;10.02;82.82;94309.56;4989215;28;20025;-58
2024/03/02 09:44:48;;;;;;;4.50;3.83;;;17.70;53.50;;;10.11;82.87;94299.84;4970105;28;20061;-60
2024/03/02 09:47:14;;;;;;;4.35;3.95;;;17.60;53.50;;;10.20;82.21;94301.53;4992834;28;20053;-57
2024/03/02 09:49:40;;;;;;;6.88;4.00;;;17.70;53.30;;;9.98;82.06;94298.72;4990814;28;20053;-59
2024/03/02 09:52:07;;;;;;;4.47;4.07;;;17.80;53.10;;;10.16;82.39;94302.41;4990041;28;20056;-58
2024/03/02 09:54:33;;;;;;;4.43;3.97;;;17.60;53.10;;;10.13;81.13;94303.78;4984796;28;20049;-59
2024/03/02 09:57:01;;;;;;;5.30;4.63;;;17.40;53.10;;;10.22;81.58;94303.91;4991085;28;20103;-58
2024/03/02 09:59:28;;;;;;;4.70;4.22;;;17.30;53.40;;;9.98;81.40;94304.03;4988788;28;20461;-59
2024/03/02 10:02:01;;;;;;;5.75;5.13;;;17.20;53.30;;;9.53;84.53;94313.50;4998089;28;20039;-57
2024/03/02 10:04:31;;;;;;;5.35;4.57;;;17.00;53.00;;;9.36;85.26;94311.34;4986956;28;20096;-59
2024/03/02 10:07:13;;;;;;;4.53;4.03;;;16.70;52.90;;;9.32;85.66;94308.50;4989044;28;20485;-58
2024/03/02 10:09:42;;;;;;;5.65;5.05;;;16.50;53.00;;;9.00;85.85;94303.88;4998591;28;20033;-59
2024/03/02 10:12:12;;;;;;;4.97;4.38;;;16.40;53.10;;;8.90;87.85;94285.38;4989468;28;20488;-59
2024/03/02 10:14:39;;;;;;;7.07;5.20;;;16.30;53.10;;;8.66;91.48;94282.78;4990151;28;20113;-59
2024/03/02 10:17:12;;;;;;;5.75;5.10;;;16.20;53.20;;;8.40;92.08;94283.06;4989352;28;20385;-59
2024/03/02 10:19:39;;;;;;;;;;;16.10;53.10;;;8.44;93.67;94280.63;4986748;28;20548;-58
2024/03/02 10:22:10;;;;;;;6.10;5.50;;;16.00;53.60;;;8.46;94.72;94273.97;4990112;28;19905;-58